Time;durP1;ratioP1;P1;durP2;ratioP2;P2;SDS_P1;SDS_P2;PMS_P1;PMS_P2;Temp;Humidity;BMP_temperature;BMP_pressure;BME280_temperature;BME280_humidity;BME280_pressure;Samples;Min_cycle;Max_cycle;Signal;HPM_P1;HPM_P2
2023/10/09 00:01:46;;;;;;;;;23.33;20.33;;;;;17.99;100.00;101835.19;5041897;28;45633;-76
2023/10/09 00:04:13;;;;;;;;;22.00;16.33;;;;;17.97;100.00;101840.16;5049226;28;45790;-75
2023/10/09 00:06:41;;;;;;;;;20.33;17.00;;;;;17.87;100.00;101825.94;5049858;28;45731;-77
2023/10/09 00:09:19;;;;;;;;;21.67;17.67;;;;;17.91;100.00;101830.81;5048909;28;45778;-76
2023/10/09 00:11:44;;;;;;;;;22.00;20.67;;;;;17.85;100.00;101831.72;5049588;28;45517;-75
2023/10/09 00:14:15;;;;;;;;;20.00;18.00;;;;;17.85;100.00;101837.25;5050100;28;45368;-76
2023/10/09 00:16:48;;;;;;;;;23.67;18.00;;;;;17.81;100.00;101828.56;5050012;28;45915;-78
2023/10/09 00:19:19;;;;;;;;;18.00;17.00;;;;;17.80;100.00;101829.63;5034284;28;46611;-75
2023/10/09 00:21:46;;;;;;;;;17.33;16.67;;;;;17.80;100.00;101828.78;5050387;28;45680;-76
2023/10/09 00:24:24;;;;;;;;;19.00;15.33;;;;;17.78;100.00;101830.94;5049529;28;45827;-76
2023/10/09 00:27:01;;;;;;;;;17.00;16.33;;;;;17.75;100.00;101832.22;5049421;28;45790;-76
2023/10/09 00:29:34;;;;;;;;;16.67;16.33;;;;;17.73;100.00;101831.63;5046699;28;46805;-77
2023/10/09 00:32:13;;;;;;;;;23.67;14.67;;;;;17.69;100.00;101830.38;5031856;28;45367;-76
2023/10/09 00:34:39;;;;;;;;;18.33;16.67;;;;;17.70;100.00;101832.09;5039543;28;46049;-75
2023/10/09 00:37:25;;;;;;;;;19.00;18.33;;;;;17.69;100.00;101838.69;5048757;28;45590;-75
2023/10/09 00:40:12;;;;;;;;;22.67;16.67;;;;;17.66;100.00;101830.84;5050108;28;45743;-73
2023/10/09 00:42:38;;;;;;;;;16.33;16.33;;;;;17.56;100.00;101813.88;5049063;28;45446;-76
2023/10/09 00:45:04;;;;;;;;;16.33;16.33;;;;;17.58;100.00;101818.13;5039861;28;45708;-76
2023/10/09 00:47:34;;;;;;;;;19.67;17.67;;;;;17.60;100.00;101813.19;5052358;28;45788;-75
2023/10/09 00:50:21;;;;;;;;;18.33;12.67;;;;;17.57;100.00;101805.31;5053453;28;46226;-75
2023/10/09 00:53:02;;;;;;;;;16.33;15.00;;;;;17.52;100.00;101804.34;5042669;28;45801;-74
2023/10/09 00:55:44;;;;;;;;;13.33;13.00;;;;;17.52;100.00;101809.88;5032260;28;45444;-75
2023/10/09 00:58:14;;;;;;;;;20.33;18.00;;;;;17.47;100.00;101803.09;5052955;28;45877;-75
2023/10/09 01:11:18;;;;;;;;;14.67;13.33;;;;;17.49;100.00;101783.44;5049939;28;45987;-76
2023/10/09 01:16:17;;;;;;;;;12.33;12.33;;;;;17.47;100.00;101786.44;5051400;28;45752;-77
2023/10/09 01:18:44;;;;;;;;;13.00;13.00;;;;;17.41;100.00;101772.63;5051819;28;45794;-75
2023/10/09 01:21:14;;;;;;;;;17.33;11.33;;;;;17.48;100.00;101776.19;5052836;28;46266;-74
2023/10/09 01:24:07;;;;;;;;;14.67;13.00;;;;;17.49;100.00;101769.59;5033511;28;45662;-75
2023/10/09 01:26:39;;;;;;;;;13.00;13.00;;;;;17.50;100.00;101773.19;5050196;28;45947;-76
2023/10/09 01:29:14;;;;;;;;;15.67;15.00;;;;;17.46;100.00;101773.66;5050157;28;45755;-75
2023/10/09 01:31:51;;;;;;;;;15.33;14.00;;;;;17.44;100.00;101773.03;5050202;28;45924;-75
2023/10/09 01:34:41;;;;;;;;;16.00;13.67;;;;;17.43;100.00;101774.13;5047939;28;45507;-74
2023/10/09 01:37:18;;;;;;;;;17.67;13.67;;;;;17.45;100.00;101771.97;5046691;28;45446;-75
2023/10/09 01:39:45;;;;;;;;;13.00;11.00;;;;;17.40;100.00;101765.41;5039756;28;45506;-74
2023/10/09 01:42:10;;;;;;;;;19.33;14.00;;;;;17.39;100.00;101772.88;5049014;28;47254;-75
2023/10/09 01:44:43;;;;;;;;;18.67;16.00;;;;;17.35;100.00;101768.88;5043569;28;45674;-75
2023/10/09 01:47:13;;;;;;;;;20.67;18.67;;;;;17.33;100.00;101764.63;5050469;28;45629;-74
2023/10/09 01:49:43;;;;;;;;;20.00;17.67;;;;;17.26;100.00;101748.91;5050575;28;45590;-74
2023/10/09 01:52:15;;;;;;;;;20.33;15.33;;;;;17.29;100.00;101765.09;5052048;28;45988;-74
2023/10/09 01:54:46;;;;;;;;;22.67;15.00;;;;;17.23;100.00;101743.84;5051737;28;45848;-75
2023/10/09 01:57:12;;;;;;;;;15.00;14.00;;;;;17.26;100.00;101750.81;5024749;28;45915;-75
2023/10/09 01:59:47;;;;;;;;;20.00;16.67;;;;;17.22;100.00;101755.16;5023789;28;47454;-74
2023/10/09 02:02:25;;;;;;;;;22.33;18.33;;;;;17.20;100.00;101757.28;5029974;28;46749;-75
2023/10/09 02:05:05;;;;;;;;;15.33;15.00;;;;;17.16;100.00;101756.06;5029809;28;45731;-75
2023/10/09 02:07:40;;;;;;;;;21.00;16.67;;;;;17.10;100.00;101758.66;5018843;28;45375;-74
2023/10/09 02:10:11;;;;;;;;;15.67;13.33;;;;;17.06;100.00;101757.41;5028931;28;46031;-75
2023/10/09 02:12:37;;;;;;;;;20.33;18.33;;;;;17.05;100.00;101747.44;5029921;28;48270;-75
2023/10/09 02:15:15;;;;;;;;;15.33;15.33;;;;;17.03;100.00;101755.09;5028178;28;45964;-74
2023/10/09 02:17:51;;;;;;;;;21.33;18.00;;;;;17.02;100.00;101745.13;5028400;28;45605;-76
2023/10/09 02:20:19;;;;;;;;;18.33;18.33;;;;;17.00;100.00;101741.69;5031122;28;45526;-76
2023/10/09 02:22:44;;;;;;;;;19.33;15.00;;;;;16.97;100.00;101741.31;5031884;28;45371;-76
2023/10/09 02:25:11;;;;;;;;;15.67;12.67;;;;;16.98;100.00;101749.41;5030627;28;45702;-76
2023/10/09 02:27:44;;;;;;;;;16.67;12.67;;;;;16.95;100.00;101744.31;5030035;28;45774;-77
2023/10/09 02:30:26;;;;;;;;;19.33;16.67;;;;;16.93;100.00;101735.38;5013937;28;46372;-74
2023/10/09 02:32:58;;;;;;;;;14.67;14.67;;;;;16.87;100.00;101737.16;5031991;28;45426;-74
2023/10/09 02:35:42;;;;;;;;;12.33;11.67;;;;;16.91;100.00;101740.31;5023721;28;45473;-75
2023/10/09 02:38:10;;;;;;;;;14.67;14.67;;;;;16.90;100.00;101747.78;5043756;28;45806;-76
2023/10/09 02:43:19;;;;;;;;;22.00;15.67;;;;;16.87;100.00;101762.09;5026635;28;45588;-75
2023/10/09 02:45:50;;;;;;;;;12.33;9.67;;;;;16.87;100.00;101759.31;5029945;28;45451;-76
2023/10/09 02:48:25;;;;;;;;;14.00;14.00;;;;;16.87;100.00;101750.13;5026962;28;45449;-74
2023/10/09 02:50:50;;;;;;;;;15.33;13.67;;;;;16.81;100.00;101749.09;5031785;28;45526;-74
2023/10/09 02:53:18;;;;;;;;;14.67;12.00;;;;;16.77;100.00;101737.59;5029892;28;46664;-75
2023/10/09 02:56:02;;;;;;;;;10.00;9.00;;;;;16.88;100.00;101747.13;5031872;28;45582;-75
2023/10/09 02:58:31;;;;;;;;;17.00;14.67;;;;;16.82;100.00;101733.31;5051060;28;45516;-74
2023/10/09 03:00:58;;;;;;;;;13.33;12.00;;;;;16.89;100.00;101745.22;5032468;28;46107;-76
2023/10/09 03:03:28;;;;;;;;;12.00;10.67;;;;;16.84;100.00;101748.66;5050856;28;45838;-75
2023/10/09 03:05:53;;;;;;;;;19.67;16.00;;;;;16.85;100.00;101749.50;5049241;28;45513;-75
2023/10/09 03:08:19;;;;;;;;;18.33;13.33;;;;;16.80;100.00;101741.03;5050213;28;45674;-74
2023/10/09 03:10:45;;;;;;;;;16.33;12.00;;;;;16.84;100.00;101754.19;5031711;28;45911;-74
2023/10/09 03:13:10;;;;;;;;;18.00;16.00;;;;;16.83;100.00;101758.03;5048739;28;45648;-76
2023/10/09 03:15:35;;;;;;;;;17.67;14.67;;;;;16.78;100.00;101752.28;5050940;28;45371;-74
2023/10/09 03:18:07;;;;;;;;;14.00;12.67;;;;;16.77;100.00;101757.00;5031036;28;45617;-74
2023/10/09 03:20:32;;;;;;;;;17.00;14.33;;;;;16.75;100.00;101745.31;5031272;28;46175;-75
2023/10/09 03:22:57;;;;;;;;;16.67;13.33;;;;;16.75;100.00;101755.53;5050371;28;45850;-75
2023/10/09 03:25:24;;;;;;;;;13.33;10.67;;;;;16.71;100.00;101751.53;5050329;28;45755;-77
2023/10/09 03:27:52;;;;;;;;;18.33;12.00;;;;;16.68;100.00;101747.28;5044382;28;45517;-77
2023/10/09 03:30:24;;;;;;;;;15.33;13.33;;;;;16.64;100.00;101754.34;5026638;28;45879;-75
2023/10/09 03:32:53;;;;;;;;;13.67;12.67;;;;;16.65;100.00;101757.97;5048782;28;46775;-76
2023/10/09 03:35:27;;;;;;;;;10.67;10.00;;;;;16.56;100.00;101743.53;5047196;28;45439;-74
2023/10/09 03:38:15;;;;;;;;;15.00;12.67;;;;;16.55;100.00;101750.16;5049940;28;45661;-75
2023/10/09 03:40:42;;;;;;;;;12.33;12.33;;;;;16.58;100.00;101760.78;5049220;28;45704;-73
2023/10/09 03:43:10;;;;;;;;;18.00;12.67;;;;;16.58;100.00;101767.16;5050289;28;46028;-76
2023/10/09 03:45:38;;;;;;;;;13.00;11.33;;;;;16.54;100.00;101756.75;5049185;28;45919;-74
2023/10/09 03:48:14;;;;;;;;;12.33;11.33;;;;;16.46;100.00;101741.25;5049270;28;45838;-75
2023/10/09 03:50:43;;;;;;;;;14.33;13.67;;;;;16.48;100.00;101743.81;5050093;28;45339;-74
2023/10/09 03:53:11;;;;;;;;;13.67;12.33;;;;;16.46;100.00;101754.25;5048353;28;45775;-74
2023/10/09 03:55:40;;;;;;;;;13.33;11.67;;;;;16.42;100.00;101760.25;5049902;28;45711;-74
2023/10/09 03:58:11;;;;;;;;;10.67;9.67;;;;;16.36;100.00;101751.97;5036391;28;45396;-75
2023/10/09 04:00:49;;;;;;;;;17.33;11.67;;;;;16.34;100.00;101759.66;5049818;28;45457;-77
2023/10/09 04:03:15;;;;;;;;;19.00;13.33;;;;;16.32;100.00;101757.13;5048555;28;45727;-74
2023/10/09 04:05:42;;;;;;;;;15.67;15.33;;;;;16.32;100.00;101762.66;5048598;28;45626;-75
2023/10/09 04:08:13;;;;;;;;;11.00;10.67;;;;;16.30;100.00;101762.03;5048489;28;45484;-74
2023/10/09 04:10:50;;;;;;;;;14.33;11.00;;;;;16.26;100.00;101757.16;5048816;28;45839;-76
2023/10/09 04:13:17;;;;;;;;;12.67;12.67;;;;;16.26;100.00;101763.56;5045761;28;47205;-75
2023/10/09 04:15:43;;;;;;;;;15.00;14.00;;;;;16.22;100.00;101759.53;5049289;28;45891;-76
2023/10/09 04:18:14;;;;;;;;;11.67;10.67;;;;;16.22;100.00;101759.53;5050221;28;45541;-75
2023/10/09 04:21:16;;;;;;;;;16.33;13.67;;;;;16.21;100.00;101755.03;5050248;28;45640;-77
2023/10/09 04:23:35;;;;;;;;;11.33;11.33;;;;;16.19;100.00;101758.03;5054244;28;46059;-76
2023/10/09 04:26:10;;;;;;;;;21.33;13.00;;;;;16.15;100.00;101755.94;5052756;28;45853;-76
2023/10/09 04:28:36;;;;;;;;;14.00;11.00;;;;;16.16;100.00;101754.88;5034839;28;45580;-76
2023/10/09 04:31:06;;;;;;;;;23.67;16.67;;;;;16.12;100.00;101751.69;5030911;28;45783;-77
2023/10/09 04:41:51;;;;;;;;;15.67;15.67;;;;;16.01;100.00;101755.16;5052736;28;45492;-77
2023/10/09 04:44:19;;;;;;;;;16.33;13.00;;;;;15.95;100.00;101744.97;5034992;28;47986;-77
2023/10/09 04:47:18;;;;;;;;;18.67;13.67;;;;;15.97;100.00;101757.53;5053719;28;45912;-79
2023/10/09 04:49:49;;;;;;;;;11.67;11.67;;;;;15.93;100.00;101764.56;5053918;28;45895;-79
2023/10/09 04:57:45;;;;;;;;;18.67;18.33;;;;;15.89;100.00;101768.84;5044337;28;45788;-77
2023/10/09 05:03:12;;;;;;;;;15.67;13.67;;;;;15.78;100.00;101756.53;5024424;28;45392;-77
2023/10/09 05:16:19;;;;;;;;;11.00;11.00;;;;;15.72;100.00;101776.75;5048266;28;45923;-76
2023/10/09 05:18:55;;;;;;;;;16.67;13.33;;;;;15.77;100.00;101782.47;5051538;28;45860;-77
2023/10/09 05:26:51;;;;;;;;;12.67;11.33;;;;;15.70;100.00;101782.50;5050039;28;45452;-77
2023/10/09 05:32:03;;;;;;;;;17.67;13.33;;;;;15.69;100.00;101796.53;5052567;28;45375;-81
2023/10/09 05:34:33;;;;;;;;;13.00;11.67;;;;;15.58;100.00;101786.97;5045206;28;45787;-76
2023/10/09 05:42:29;;;;;;;;;14.00;13.67;;;;;15.54;100.00;101794.88;5051324;28;45586;-75
2023/10/09 05:47:39;;;;;;;;;14.67;11.00;;;;;15.40;100.00;101778.53;5051600;28;45822;-74
2023/10/09 05:53:04;;;;;;;;;15.33;12.33;;;;;15.45;100.00;101790.66;5050955;28;45724;-78
2023/10/09 06:03:45;;;;;;;;;22.00;18.00;;;;;15.30;100.00;101756.84;5051153;28;45564;-76
2023/10/09 06:06:18;;;;;;;;;22.33;16.00;;;;;15.44;100.00;101788.09;5053304;28;46117;-77
2023/10/09 06:14:04;;;;;;;;;12.33;12.33;;;;;15.48;100.00;101798.50;5052756;28;45790;-76
2023/10/09 06:19:08;;;;;;;;;22.33;20.00;;;;;15.50;100.00;101788.06;5051221;28;45811;-77
2023/10/09 06:32:57;;;;;;;;;12.67;11.67;;;;;15.89;100.00;101799.25;5050708;28;45924;-75
2023/10/09 06:35:32;;;;;;;;;13.33;12.33;;;;;15.99;100.00;101801.59;5042762;28;45828;-77
2023/10/09 06:45:58;;;;;;;;;15.00;14.00;;;;;16.65;100.00;101783.75;5047013;28;45803;-81
2023/10/09 06:51:34;;;;;;;;;15.33;13.67;;;;;16.99;100.00;101805.66;5042805;28;45978;-81
2023/10/09 06:57:12;;;;;;;;;14.33;9.00;;;;;17.11;100.00;101809.38;5050956;28;45787;-82
2023/10/09 06:59:21;;;;;;;;;14.00;12.00;;;;;17.16;100.00;101803.19;5053050;28;45926;-79
2023/10/09 07:02:25;;;;;;;;;15.33;15.33;;;;;17.20;100.00;101812.72;5048975;28;45247;-80
2023/10/09 07:07:07;;;;;;;;;18.33;14.00;;;;;17.18;100.00;101801.03;5041869;28;45308;-81
2023/10/09 07:09:42;;;;;;;;;17.33;16.33;;;;;17.22;100.00;101805.06;5045335;28;47426;-79
2023/10/09 07:12:25;;;;;;;;;19.67;16.00;;;;;17.25;100.00;101813.75;5050267;28;45664;-83
2023/10/09 07:20:13;;;;;;;;;16.33;12.67;;;;;17.40;100.00;101813.41;5047382;28;45833;-76
2023/10/09 07:22:52;;;;;;;;;21.33;18.33;;;;;17.43;100.00;101818.50;5036692;28;47284;-79
2023/10/09 07:28:36;;;;;;;;;17.00;16.00;;;;;17.56;100.00;101827.75;5025360;28;45542;-76
2023/10/09 07:31:02;;;;;;;;;19.67;15.33;;;;;17.57;100.00;101830.28;5049374;28;45737;-79
2023/10/09 07:33:50;;;;;;;;;16.33;14.67;;;;;17.64;100.00;101822.75;5029189;28;47396;-78
2023/10/09 07:36:29;;;;;;;;;16.67;16.67;;;;;17.64;100.00;101831.06;5041081;28;45719;-76
2023/10/09 07:38:55;;;;;;;;;16.33;15.00;;;;;17.69;100.00;101837.88;5049356;28;45474;-77
2023/10/09 07:43:46;;;;;;;;;19.33;17.33;;;;;17.72;100.00;101837.41;5050649;28;46560;-79
2023/10/09 07:46:30;;;;;;;;;20.00;18.00;;;;;17.78;100.00;101844.81;5032439;28;45876;-78
2023/10/09 07:48:57;;;;;;;;;24.00;17.67;;;;;17.83;100.00;101848.59;5028382;28;45283;-78
2023/10/09 07:51:30;;;;;;;;;26.00;20.33;;;;;17.75;100.00;101823.91;5048369;28;46345;-79
2023/10/09 07:53:57;;;;;;;;;28.00;22.00;;;;;17.89;100.00;101845.97;5030669;28;45458;-78
2023/10/09 07:56:24;;;;;;;;;28.67;23.00;;;;;17.93;100.00;101844.44;5046230;28;45851;-78
2023/10/09 07:58:49;;;;;;;;;28.00;24.00;;;;;17.85;100.00;101819.78;5050374;28;45961;-78
2023/10/09 08:01:16;;;;;;;;;22.00;22.00;;;;;17.99;100.00;101844.41;5049590;28;45659;-78
2023/10/09 08:03:46;;;;;;;;;29.67;24.00;;;;;18.04;100.00;101843.69;5045057;28;45650;-77
2023/10/09 08:17:09;;;;;;;;;17.67;16.00;;;;;18.22;100.00;101848.38;5050721;28;45614;-79
2023/10/09 08:19:34;;;;;;;;;18.67;16.00;;;;;18.28;100.00;101854.94;5048408;28;45685;-78
2023/10/09 08:24:52;;;;;;;;;20.00;16.00;;;;;18.24;100.00;101828.72;5048331;28;45989;-77
2023/10/09 08:33:01;;;;;;;;;17.67;15.67;;;;;18.49;100.00;101865.53;5024085;28;45769;-77
2023/10/09 08:35:30;;;;;;;;;23.67;17.67;;;;;18.50;100.00;101850.56;5029701;28;47646;-77
2023/10/09 08:38:07;;;;;;;;;21.00;19.33;;;;;18.59;100.00;101861.34;5048815;28;45895;-76
2023/10/09 08:40:42;;;;;;;;;21.33;16.67;;;;;18.62;100.00;101863.66;5023724;28;45683;-75
2023/10/09 08:43:21;;;;;;;;;24.67;19.67;;;;;18.64;100.00;101855.94;5042767;28;45932;-78
2023/10/09 08:46:00;;;;;;;;;22.67;18.67;;;;;18.59;100.00;101845.50;5048862;28;45747;-77
2023/10/09 08:48:27;;;;;;;;;25.00;20.33;;;;;18.76;100.00;101870.72;5049369;28;45563;-76
2023/10/09 08:50:56;;;;;;;;;27.00;22.67;;;;;18.82;100.00;101871.72;5050671;28;45889;-76
2023/10/09 08:53:23;;;;;;;;;21.33;17.00;;;;;18.85;100.00;101869.34;5047581;28;45879;-76
2023/10/09 08:55:51;;;;;;;;;19.33;16.00;;;;;18.92;100.00;101876.72;5048706;28;45877;-76
2023/10/09 08:58:24;;;;;;;;;17.67;13.67;;;;;18.98;100.00;101872.97;5049456;28;45626;-77
2023/10/09 09:00:51;;;;;;;;;14.67;10.67;;;;;19.07;100.00;101870.72;5050498;28;45735;-77
2023/10/09 09:03:18;;;;;;;;;16.67;15.00;;;;;19.14;100.00;101874.25;5048666;28;45891;-76
2023/10/09 09:05:47;;;;;;;;;16.00;12.33;;;;;19.18;100.00;101870.75;5049920;28;45782;-76
2023/10/09 09:08:25;;;;;;;;;15.00;11.33;;;;;19.24;100.00;101855.03;5052553;28;45767;-75
2023/10/09 09:13:41;;;;;;;;;20.67;14.67;;;;;21.89;100.00;101863.56;5053401;28;45421;-76
2023/10/09 09:16:15;;;;;;;;;12.67;11.33;;;;;23.59;100.00;101850.31;5034727;28;47936;-75
2023/10/09 09:19:37;;;;;;;;;14.33;12.00;;;;;25.36;100.00;101864.66;5053089;28;45422;-78
2023/10/09 09:21:48;;;;;;;;;17.33;12.33;;;;;27.19;100.00;101859.69;5035844;28;45916;-77
2023/10/09 09:24:36;;;;;;;;;14.67;11.67;;;;;28.58;100.00;101861.81;5051547;28;46137;-77
2023/10/09 09:27:31;;;;;;;;;11.50;9.00;;;;;30.07;100.00;101867.75;5045914;28;47124;-77
2023/10/09 09:29:56;;;;;;;;;14.25;10.00;;;;;31.36;94.62;101861.16;5052599;28;45519;-76
2023/10/09 09:32:35;;;;;;;;;9.50;7.25;;;;;32.34;87.12;101862.13;5042058;28;45747;-78
2023/10/09 09:35:01;;;;;;;;;18.00;12.00;;;;;33.18;79.83;101853.47;5028696;28;45900;-77
2023/10/09 09:37:28;;;;;;;;;14.25;10.50;;;;;33.96;75.07;101856.09;5044031;28;46274;-77
2023/10/09 09:40:14;;;;;;;;;11.00;8.00;;;;;34.73;70.54;101842.88;5041070;28;45641;-76
2023/10/09 09:42:45;;;;;;;;;11.00;8.25;;;;;35.42;65.60;101849.16;5052769;28;46069;-77
2023/10/09 09:45:11;;;;;;;;;13.00;10.00;;;;;36.01;60.17;101854.47;5034572;28;45930;-78
2023/10/09 09:47:37;;;;;;;;;15.25;9.75;;;;;36.33;57.76;101840.41;5049145;28;47064;-76
2023/10/09 09:50:12;;;;;;;;;12.00;8.50;;;;;36.63;55.50;101842.97;5051416;28;46492;-77
2023/10/09 09:52:38;;;;;;;;;10.50;9.00;;;;;37.08;52.90;101852.47;5044100;28;45611;-77
2023/10/09 09:55:22;;;;;;;;;12.00;8.50;;;;;37.36;51.25;101851.66;5052878;28;45775;-81
2023/10/09 09:57:51;;;;;;;;;14.25;10.25;;;;;37.55;49.58;101845.22;5053257;28;45513;-78
2023/10/09 10:00:30;;;;;;;;;15.25;9.50;;;;;37.77;48.44;101847.47;5053866;28;45950;-76
2023/10/09 10:03:09;;;;;;;;;15.50;11.25;;;;;37.87;46.43;101848.09;5053076;28;45467;-78
2023/10/09 10:05:37;;;;;;;;;11.25;11.00;;;;;37.91;45.21;101854.75;5032576;28;46600;-76
2023/10/09 10:08:05;;;;;;;;;11.25;10.25;;;;;38.04;45.43;101844.84;5041498;28;45573;-77
2023/10/09 10:10:53;;;;;;;;;11.25;10.00;;;;;38.24;46.12;101850.66;5048696;28;45527;-75
2023/10/09 10:13:41;;;;;;;;;11.50;8.50;;;;;38.30;45.38;101855.72;5050647;28;45857;-75
2023/10/09 10:16:20;;;;;;;;;8.75;8.75;;;;;38.14;44.47;101849.16;5053360;28;46231;-75
2023/10/09 10:21:41;;;;;;;;;12.50;11.25;;;;;37.21;43.11;101850.41;5035782;28;45471;-79
2023/10/09 10:24:28;;;;;;;;;13.00;8.75;;;;;36.91;43.84;101850.78;5052368;28;45741;-79
2023/10/09 10:27:24;;;;;;;;;10.50;8.50;;;;;36.72;42.04;101846.53;5032775;28;46501;-76
2023/10/09 10:30:12;;;;;;;;;8.75;7.00;;;;;36.07;41.84;101851.41;5046014;28;46497;-75
2023/10/09 10:32:58;;;;;;;;;8.75;7.00;;;;;35.60;42.25;101844.91;5046067;28;45791;-75
2023/10/09 10:35:39;;;;;;;;;7.50;7.25;;;;;35.63;42.04;101844.22;5052252;28;45695;-74
2023/10/09 10:38:36;;;;;;;;;8.25;7.00;;;;;35.27;42.09;101831.53;5049414;28;45908;-76
2023/10/09 10:41:11;;;;;;;;;4.75;2.50;;;;;35.05;41.31;101841.28;5035568;28;45951;-78
2023/10/09 10:46:38;;;;;;;;;5.25;3.75;;;;;34.69;41.73;101828.50;5048235;28;45941;-73
2023/10/09 10:51:37;;;;;;;;;4.25;2.75;;;;;33.84;42.59;101826.72;5048206;28;45770;-77
2023/10/09 10:56:51;;;;;;;;;9.75;7.00;;;;;33.05;43.15;101827.72;5049293;28;45648;-76
2023/10/09 10:59:26;;;;;;;;;9.25;9.25;;;;;32.80;44.44;101817.22;5050518;28;45682;-74
2023/10/09 11:01:53;;;;;;;;;7.75;5.00;;;;;32.46;43.73;101819.72;5048486;28;45868;-75
2023/10/09 11:12:45;;;;;;;;;9.25;5.00;;;;;31.35;43.79;101829.13;5020364;28;46126;-75
2023/10/09 11:18:16;;;;;;;;;3.75;3.25;;;;;30.97;43.45;101826.66;5039114;28;45985;-77
2023/10/09 11:20:56;;;;;;;;;6.75;5.25;;;;;30.81;42.65;101827.06;5028058;28;46900;-76
2023/10/09 11:29:14;;;;;;;;;6.25;5.00;;;;;30.29;40.57;101832.22;5048815;28;45685;-76
2023/10/09 11:32:01;;;;;;;;;3.75;3.75;;;;;30.14;41.30;101827.72;5050125;28;45427;-75
2023/10/09 11:34:37;;;;;;;;;5.75;3.50;;;;;30.02;40.64;101818.94;5039406;28;45429;-75
2023/10/09 11:39:55;;;;;;;;;1.00;1.00;;;;;29.93;40.41;101821.69;5050980;28;45763;-76
2023/10/09 11:42:38;;;;;;;;;4.75;4.25;;;;;29.90;41.55;101822.31;5050541;28;45423;-76
2023/10/09 11:45:20;;;;;;;;;2.50;1.00;;;;;29.81;41.76;101822.19;5049818;28;46026;-77
2023/10/09 11:50:50;;;;;;;;;3.25;2.25;;;;;29.60;39.85;101790.63;5047082;28;45384;-75
2023/10/09 11:55:53;;;;;;;;;4.25;3.25;;;;;29.33;39.21;101797.94;5049912;28;45944;-80
2023/10/09 11:58:22;;;;;;;;;5.75;4.00;;;;;29.27;40.87;101809.63;5049564;28;45490;-75
2023/10/09 12:00:51;;;;;;;;;3.50;3.00;;;;;29.15;41.24;101807.28;5048961;28;45589;-75
2023/10/09 12:03:17;;;;;;;;;5.50;4.50;;;;;28.91;42.48;101805.44;5050984;28;45564;-75
2023/10/09 12:05:45;;;;;;;;;6.00;4.00;;;;;28.81;43.03;101808.41;5049335;28;45726;-74
2023/10/09 12:08:15;;;;;;;;;3.25;3.25;;;;;28.64;43.86;101812.63;5050048;28;45434;-74
2023/10/09 12:10:40;;;;;;;;;6.50;6.50;;;;;28.48;44.34;101797.03;5049808;28;45492;-74
2023/10/09 12:13:07;;;;;;;;;4.00;4.00;;;;;28.24;45.11;101788.66;5049520;28;45624;-74
2023/10/09 12:15:39;;;;;;;;;4.00;4.00;;;;;28.08;45.37;101788.84;5049785;28;46394;-76
2023/10/09 12:18:14;;;;;;;;;5.75;4.50;;;;;28.06;46.42;101796.78;5050418;28;45711;-73
2023/10/09 12:20:41;;;;;;;;;8.75;4.25;;;;;27.95;47.26;101793.22;5050340;28;45458;-76
2023/10/09 12:23:07;;;;;;;;;7.50;5.00;;;;;27.68;47.13;101776.06;5049107;28;45521;-75
2023/10/09 12:25:35;;;;;;;;;5.00;4.75;;;;;27.55;48.36;101767.22;5049234;28;45412;-75
2023/10/09 12:28:01;;;;;;;;;3.50;3.50;;;;;27.46;48.98;101769.84;5048300;28;45852;-74
2023/10/09 12:30:29;;;;;;;;;5.25;4.00;;;;;27.35;48.64;101785.19;5049602;28;45589;-74
2023/10/09 12:32:57;;;;;;;;;6.00;6.00;;;;;27.21;46.24;101773.72;5049075;28;45485;-75
2023/10/09 12:35:25;;;;;;;;;10.00;5.50;;;;;27.11;46.63;101768.19;5049490;28;45846;-76
2023/10/09 12:37:54;;;;;;;;;5.50;5.00;;;;;27.03;47.53;101754.78;5048569;28;45793;-76
2023/10/09 12:40:24;;;;;;;;;6.50;5.25;;;;;26.95;46.14;101751.47;5049571;28;45470;-75
2023/10/09 12:42:52;;;;;;;;;7.00;4.00;;;;;26.79;45.80;101744.28;5051889;28;45410;-77
2023/10/09 12:45:25;;;;;;;;;5.00;5.00;;;;;26.76;45.34;101745.69;5032764;28;46697;-77
2023/10/09 12:47:51;;;;;;;;;3.75;3.75;;;;;26.74;46.94;101747.97;5053451;28;45782;-76
2023/10/09 12:50:27;;;;;;;;;8.75;6.25;;;;;26.71;47.33;101739.31;5039758;28;45895;-75
2023/10/09 12:52:53;;;;;;;;;6.75;3.75;;;;;26.71;47.18;101744.94;5046048;28;45746;-75
2023/10/09 12:55:20;;;;;;;;;6.75;5.00;;;;;26.66;46.90;101736.47;5051758;28;45533;-74
2023/10/09 12:57:47;;;;;;;;;4.00;3.00;;;;;26.69;47.49;101731.16;5052540;28;46047;-76
2023/10/09 13:00:13;;;;;;;;;6.00;4.25;;;;;26.78;48.12;101728.53;5053884;28;45724;-76
2023/10/09 13:02:43;;;;;;;;;4.75;4.25;;;;;26.90;47.31;101740.25;5049186;28;45818;-75
2023/10/09 13:05:10;;;;;;;;;5.75;4.25;;;;;26.91;46.49;101730.66;5046383;28;45837;-74
2023/10/09 13:07:35;;;;;;;;;10.50;5.00;;;;;26.93;47.17;101734.03;5053393;28;45969;-74
2023/10/09 13:10:12;;;;;;;;;7.25;5.50;;;;;26.94;47.56;101729.22;5052663;28;45776;-77
2023/10/09 13:12:41;;;;;;;;;5.00;5.00;;;;;26.97;47.07;101731.44;5052842;28;45791;-74
2023/10/09 13:15:10;;;;;;;;;7.50;6.00;;;;;26.97;47.09;101731.44;5048543;28;46668;-74
2023/10/09 13:17:37;;;;;;;;;6.75;5.75;;;;;26.95;47.05;101731.75;5042642;28;45833;-76
2023/10/09 13:20:12;;;;;;;;;5.50;4.50;;;;;26.95;47.11;101731.75;5052851;28;45481;-75
2023/10/09 13:22:41;;;;;;;;;6.50;5.25;;;;;26.91;47.35;101713.75;5034389;28;46422;-75
2023/10/09 13:25:24;;;;;;;;;7.50;5.75;;;;;26.95;46.34;101720.47;5046383;28;46188;-75
2023/10/09 13:27:50;;;;;;;;;5.00;5.00;;;;;26.95;47.33;101714.84;5031646;28;45485;-74
2023/10/09 13:30:31;;;;;;;;;6.00;6.00;;;;;26.96;47.60;101721.31;5042538;28;47114;-82
2023/10/09 13:33:05;;;;;;;;;6.75;5.50;;;;;26.89;47.11;101707.59;5042161;28;45565;-86
2023/10/09 13:35:37;;;;;;;;;5.75;4.50;;;;;27.03;47.91;101726.63;5037765;28;47195;-81
2023/10/09 13:38:07;;;;;;;;;9.00;6.75;;;;;26.99;48.08;101722.72;5042727;28;45960;-82
2023/10/09 13:40:35;;;;;;;;;5.50;4.50;;;;;27.04;48.42;101725.50;5028256;28;45443;-83
2023/10/09 13:43:00;;;;;;;;;4.50;2.25;;;;;27.07;48.66;101722.06;5050209;28;45853;-82
2023/10/09 13:45:27;;;;;;;;;4.50;4.50;;;;;27.03;48.24;101713.38;5028544;28;46236;-83
2023/10/09 13:48:02;;;;;;;;;5.00;3.50;;;;;27.03;47.44;101712.53;5052372;28;45696;-82
2023/10/09 13:50:32;;;;;;;;;5.75;4.75;;;;;27.03;47.77;101716.19;5036920;28;45973;-83
2023/10/09 13:52:57;;;;;;;;;4.75;4.75;;;;;27.09;48.32;101714.16;5049668;28;45735;-82
2023/10/09 13:55:29;;;;;;;;;6.75;5.25;;;;;27.12;48.70;101720.03;5029547;28;47619;-82
2023/10/09 13:57:57;;;;;;;;;6.00;5.00;;;;;27.11;49.49;101707.09;5036595;28;45546;-81
2023/10/09 14:00:41;;;;;;;;;6.00;5.25;;;;;27.15;49.57;101707.34;5056037;28;46757;-82
2023/10/09 14:03:19;;;;;;;;;6.25;5.00;;;;;27.19;50.01;101702.78;5046396;28;46899;-85
2023/10/09 14:05:56;;;;;;;;;4.25;4.25;;;;;27.23;49.63;101701.06;5054247;28;46256;-83
2023/10/09 14:08:23;;;;;;;;;5.50;5.50;;;;;27.27;49.72;101685.22;5052686;28;45709;-83
2023/10/09 14:10:50;;;;;;;;;6.50;5.00;;;;;27.30;50.42;101686.59;5057847;28;45490;-83
2023/10/09 14:13:16;;;;;;;;;7.25;7.00;;;;;27.27;50.36;101676.78;5056214;28;45499;-82
2023/10/09 14:15:43;;;;;;;;;3.00;3.00;;;;;27.28;50.38;101680.44;5056320;28;46084;-84
2023/10/09 14:18:11;;;;;;;;;8.50;7.00;;;;;27.30;51.06;101684.63;5057572;28;45411;-82
2023/10/09 14:20:37;;;;;;;;;5.00;5.00;;;;;27.34;51.91;101686.91;5053141;28;45414;-82
2023/10/09 14:23:06;;;;;;;;;8.50;7.50;;;;;27.33;52.42;101690.84;5036942;28;46539;-84
2023/10/09 14:25:39;;;;;;;;;7.25;4.25;;;;;27.22;51.78;101676.03;5030757;28;46682;-81
2023/10/09 14:28:08;;;;;;;;;9.25;6.50;;;;;27.22;51.54;101682.47;5030756;28;45777;-80